Enderlin, North Dakota
Current Conditions -  °F | °C
As of 10:35 PM on Wednesday 26 Nov 2014 (Local Time) from KGWR Reporting Station
Clear Clear  
Wind Chill: -20°   Ceiling: Unl
Heat Index: -4°   Visibility: 10mi
Dew Point: -11°   Wind: 9mph
Humidity: 71%   Direction: 350°N
Pressure: 30.52"   Gusts: NA
Location:  46.62°N, 97.6°W
Report Text: KGWR 270435Z AUTO 35008KT 10SM CLR M20/M24 A3052 RMK A01 P000
Loading
Personal Weather Stations






























Interactive Weather Map New forecast layout! Learn more

10-Day Weather Forecast

Advertisements
Track Severe Weather on mobile